createdAt,value
2022-12-07T00:01:08.204Z,25.90
2022-12-07T00:03:36.302Z,25.23
2022-12-07T00:06:05.654Z,25.33
2022-12-07T00:08:34.087Z,25.77
2022-12-07T00:11:03.352Z,25.67
2022-12-07T00:13:31.652Z,26.27
2022-12-07T00:16:02.497Z,26.30
2022-12-07T00:18:31.733Z,25.97
2022-12-07T00:21:03.349Z,25.90
2022-12-07T00:23:31.269Z,24.67
2022-12-07T00:26:05.430Z,25.40
2022-12-07T00:28:34.534Z,25.47
2022-12-07T00:31:04.285Z,25.27
2022-12-07T00:33:33.521Z,24.73
2022-12-07T00:36:02.252Z,24.70
2022-12-07T00:38:31.408Z,25.07
2022-12-07T00:40:59.293Z,23.47
2022-12-07T00:43:27.158Z,24.50
2022-12-07T00:45:55.534Z,25.50
2022-12-07T00:48:24.299Z,24.73
2022-12-07T00:50:53.985Z,23.93
2022-12-07T00:53:21.872Z,24.93
2022-12-07T00:55:49.685Z,24.03
2022-12-07T00:58:17.640Z,23.83
2022-12-07T01:00:45.455Z,24.07
2022-12-07T01:03:15.304Z,24.50
2022-12-07T01:05:51.786Z,23.13
2022-12-07T01:08:21.965Z,24.47
2022-12-07T01:10:50.591Z,23.67
2022-12-07T01:13:18.396Z,23.57
2022-12-07T01:15:46.900Z,22.53
2022-12-07T01:18:14.658Z,22.20
2022-12-07T01:20:42.544Z,21.77
2022-12-07T01:23:10.383Z,19.83
2022-12-07T01:25:39.549Z,21.03
2022-12-07T01:28:07.297Z,20.53
2022-12-07T01:30:35.146Z,18.27
2022-12-07T01:33:02.972Z,18.63
2022-12-07T01:35:30.757Z,19.73
2022-12-07T01:37:58.535Z,20.70
2022-12-07T01:40:26.296Z,20.27
2022-12-07T01:42:55.435Z,19.93
2022-12-07T01:45:47.202Z,20.97
2022-12-07T01:48:17.723Z,20.03
2022-12-07T01:50:46.409Z,19.97
2022-12-07T01:53:14.912Z,21.53
2022-12-07T01:55:44.843Z,21.37
2022-12-07T01:58:14.824Z,21.43
2022-12-07T02:00:43.154Z,22.43
2022-12-07T02:03:16.641Z,21.80
2022-12-07T02:05:45.531Z,21.43
2022-12-07T02:08:14.797Z,22.67
2022-12-07T02:10:42.649Z,21.77
2022-12-07T02:13:15.690Z,22.70
2022-12-07T02:15:52.063Z,22.43
2022-12-07T02:18:27.889Z,22.73
2022-12-07T02:20:59.772Z,21.60
2022-12-07T02:23:42.793Z,20.33
2022-12-07T02:26:30.759Z,21.33
2022-12-07T02:29:13.226Z,20.80
2022-12-07T02:31:45.698Z,19.97
2022-12-07T02:34:34.586Z,22.00
2022-12-07T02:37:05.354Z,20.70
2022-12-07T02:39:39.398Z,20.77
2022-12-07T02:42:14.239Z,21.57
2022-12-07T02:44:44.035Z,20.70
2022-12-07T02:47:14.632Z,20.33
2022-12-07T02:49:42.899Z,21.47
2022-12-07T02:52:10.772Z,20.07
2022-12-07T02:54:38.556Z,18.70
2022-12-07T02:57:16.604Z,19.83
2022-12-07T02:59:52.828Z,19.10
2022-12-07T03:02:27.407Z,19.47
2022-12-07T03:04:58.835Z,19.27
2022-12-07T03:07:31.576Z,16.93
2022-12-07T03:10:03.915Z,18.33
2022-12-07T03:12:34.696Z,18.83
2022-12-07T03:15:08.740Z,19.03
2022-12-07T03:17:40.141Z,19.00
2022-12-07T03:20:10.336Z,19.27
2022-12-07T03:22:40.636Z,18.70
2022-12-07T03:25:11.392Z,19.47
2022-12-07T03:27:41.878Z,18.57
2022-12-07T03:30:15.408Z,19.97
2022-12-07T03:32:46.037Z,20.00
2022-12-07T03:35:17.903Z,18.97
2022-12-07T03:37:48.677Z,18.07
2022-12-07T03:40:20.154Z,17.97
2022-12-07T03:42:48.691Z,17.67
2022-12-07T03:45:18.713Z,17.27
2022-12-07T03:47:51.788Z,17.40
2022-12-07T03:50:25.511Z,16.63
2022-12-07T03:52:56.859Z,17.27
2022-12-07T03:55:27.411Z,17.63
2022-12-07T03:57:57.723Z,18.37
2022-12-07T04:00:27.140Z,17.33
2022-12-07T04:02:55.736Z,18.33
2022-12-07T04:05:23.737Z,18.53
2022-12-07T04:07:51.558Z,18.03
2022-12-07T04:10:19.662Z,18.43
2022-12-07T04:12:47.464Z,19.80
2022-12-07T04:15:15.291Z,19.80
2022-12-07T04:17:44.956Z,20.10
2022-12-07T04:20:14.154Z,21.47
2022-12-07T04:22:42.218Z,19.63
2022-12-07T04:25:10.395Z,20.10
2022-12-07T04:27:38.157Z,19.00
2022-12-07T04:30:07.297Z,19.90
2022-12-07T04:32:35.099Z,21.53
2022-12-07T04:35:04.361Z,21.40
2022-12-07T04:37:32.183Z,19.93
2022-12-07T04:40:00.178Z,21.93
2022-12-07T04:42:28.311Z,20.87
2022-12-07T04:44:56.090Z,19.93
2022-12-07T04:47:23.873Z,19.20
2022-12-07T04:49:51.664Z,19.97
2022-12-07T04:52:20.745Z,19.20
2022-12-07T04:54:48.560Z,19.17
2022-12-07T04:57:16.322Z,17.50
2022-12-07T04:59:45.977Z,17.93
2022-12-07T05:02:14.191Z,17.77
2022-12-07T05:04:41.970Z,17.43
2022-12-07T05:07:09.833Z,17.80
2022-12-07T05:09:38.925Z,18.00
2022-12-07T05:12:06.793Z,17.87
2022-12-07T05:14:34.546Z,16.63
2022-12-07T05:17:02.340Z,17.00
2022-12-07T05:19:30.124Z,16.10
2022-12-07T05:21:57.972Z,16.80
2022-12-07T05:24:25.762Z,14.87
2022-12-07T05:26:54.906Z,15.40
2022-12-07T05:29:22.665Z,15.57
2022-12-07T05:31:50.793Z,16.17
2022-12-07T05:34:18.659Z,15.70
2022-12-07T05:36:46.398Z,16.10
2022-12-07T05:39:14.209Z,15.37
2022-12-07T05:41:59.696Z,15.37
2022-12-07T05:44:29.260Z,15.40
2022-12-07T05:46:57.071Z,14.97
2022-12-07T05:49:25.017Z,15.93
2022-12-07T05:51:52.824Z,16.37
2022-12-07T05:54:20.837Z,17.57
2022-12-07T05:56:48.604Z,17.27
2022-12-07T05:59:24.800Z,15.77
2022-12-07T06:01:55.039Z,16.30
2022-12-07T06:04:24.294Z,16.03
2022-12-07T06:06:52.097Z,16.40
2022-12-07T06:09:20.568Z,16.57
2022-12-07T06:12:05.818Z,16.60
2022-12-07T06:14:33.631Z,16.83
2022-12-07T06:17:03.126Z,16.17
2022-12-07T06:19:31.041Z,16.63
2022-12-07T06:21:59.223Z,17.57
2022-12-07T06:24:27.096Z,16.30
2022-12-07T06:26:54.905Z,15.80
2022-12-07T06:29:22.982Z,15.87
2022-12-07T06:31:50.802Z,16.33
2022-12-07T06:34:21.215Z,16.33
2022-12-07T06:36:52.168Z,16.70
2022-12-07T06:39:20.509Z,15.07
2022-12-07T06:41:48.468Z,14.90
2022-12-07T06:44:16.327Z,14.67
2022-12-07T06:46:44.149Z,15.27
2022-12-07T06:49:12.206Z,15.30
2022-12-07T06:51:42.254Z,15.80
2022-12-07T06:54:10.263Z,14.80
2022-12-07T06:56:38.156Z,14.43
2022-12-07T06:59:07.435Z,14.87
2022-12-07T07:01:36.014Z,15.93
2022-12-07T07:04:04.050Z,13.73
2022-12-07T07:06:31.943Z,14.20
2022-12-07T07:09:01.307Z,15.73
2022-12-07T07:11:29.225Z,14.27
2022-12-07T07:14:03.016Z,15.67
2022-12-07T07:16:32.307Z,15.63
2022-12-07T07:19:00.399Z,16.40
2022-12-07T07:21:28.380Z,16.30
2022-12-07T07:23:56.152Z,15.40
2022-12-07T07:26:25.324Z,15.27
2022-12-07T07:28:53.171Z,15.53
2022-12-07T07:31:21.132Z,14.93
2022-12-07T07:33:49.284Z,15.30
2022-12-07T07:36:17.160Z,15.57
2022-12-07T07:38:45.267Z,13.43
2022-12-07T07:41:13.132Z,14.97
2022-12-07T07:43:42.342Z,12.77
2022-12-07T07:46:10.425Z,13.77
2022-12-07T07:48:38.399Z,13.30
2022-12-07T07:51:08.092Z,13.07
2022-12-07T07:53:36.164Z,11.63
2022-12-07T07:56:04.327Z,13.00
2022-12-07T07:58:32.159Z,11.87
2022-12-07T08:01:06.875Z,12.37
2022-12-07T08:03:35.307Z,11.87
2022-12-07T08:06:04.143Z,11.70
2022-12-07T08:08:32.038Z,11.63
2022-12-07T08:11:01.668Z,11.50
2022-12-07T08:13:31.541Z,10.60
2022-12-07T08:15:59.989Z,10.80
2022-12-07T08:18:29.205Z,11.03
2022-12-07T08:21:01.229Z,11.10
2022-12-07T08:23:34.904Z,10.50
2022-12-07T08:26:11.920Z,9.80
2022-12-07T08:28:42.342Z,10.37
2022-12-07T08:31:13.256Z,9.20
2022-12-07T08:33:42.672Z,9.00
2022-12-07T08:36:12.048Z,8.53
2022-12-07T08:38:44.940Z,8.80
2022-12-07T08:41:19.830Z,8.37
2022-12-07T08:43:47.781Z,10.03
2022-12-07T08:46:20.197Z,11.60
2022-12-07T08:48:53.593Z,7.80
2022-12-07T08:51:22.457Z,7.57
2022-12-07T08:53:50.811Z,8.00
2022-12-07T08:56:19.070Z,7.53
2022-12-07T08:58:47.055Z,7.93
2022-12-07T09:01:15.047Z,7.50
2022-12-07T09:03:42.951Z,6.90
2022-12-07T09:06:12.611Z,7.03
2022-12-07T09:08:42.785Z,6.30
2022-12-07T09:11:10.703Z,6.70
2022-12-07T09:13:38.643Z,7.50
2022-12-07T09:16:07.282Z,8.03
2022-12-07T09:18:35.156Z,6.93
2022-12-07T09:21:03.043Z,7.00
2022-12-07T09:23:32.828Z,6.57
2022-12-07T09:26:04.857Z,6.27
2022-12-07T09:28:35.618Z,6.93
2022-12-07T09:33:56.660Z,6.90
2022-12-07T09:36:24.656Z,7.67
2022-12-07T09:38:53.990Z,8.07
2022-12-07T09:41:22.977Z,6.67
2022-12-07T09:43:50.946Z,6.97
2022-12-07T09:46:20.366Z,7.73
2022-12-07T09:48:49.740Z,7.30
2022-12-07T09:51:23.761Z,7.43
2022-12-07T09:53:55.025Z,7.67
2022-12-07T09:56:24.230Z,7.97
2022-12-07T09:58:52.619Z,7.87
2022-12-07T10:01:22.159Z,9.37
2022-12-07T10:03:52.795Z,8.87
2022-12-07T10:06:21.442Z,8.67
2022-12-07T10:08:49.294Z,8.77
2022-12-07T10:11:18.610Z,9.40
2022-12-07T10:13:49.686Z,8.53
2022-12-07T10:16:39.349Z,9.93
2022-12-07T10:19:22.392Z,9.37
2022-12-07T10:22:02.925Z,10.30
2022-12-07T10:24:30.856Z,9.60
2022-12-07T10:27:00.192Z,9.20
2022-12-07T10:29:31.594Z,9.40
2022-12-07T10:32:01.283Z,10.57
2022-12-07T10:34:33.189Z,10.50
2022-12-07T10:37:19.047Z,9.73
2022-12-07T10:39:48.955Z,10.30
2022-12-07T10:42:22.454Z,11.00
2022-12-07T10:44:51.481Z,11.80
2022-12-07T10:47:33.795Z,11.03
2022-12-07T10:50:29.762Z,9.77
2022-12-07T10:53:23.895Z,9.60
2022-12-07T10:56:21.465Z,10.27
2022-12-07T10:58:59.979Z,8.90
2022-12-07T11:01:31.722Z,9.43
2022-12-07T11:04:17.440Z,9.67
2022-12-07T11:06:51.875Z,9.17
2022-12-07T11:12:51.253Z,9.27
2022-12-07T11:15:26.608Z,8.80
2022-12-07T11:17:58.612Z,8.10
2022-12-07T11:20:42.680Z,9.10
2022-12-07T11:23:19.385Z,8.37
2022-12-07T11:25:54.862Z,8.20
2022-12-07T11:28:32.138Z,8.20
2022-12-07T11:31:07.424Z,8.57
2022-12-07T11:33:38.826Z,6.77
2022-12-07T11:36:19.958Z,7.00
2022-12-07T11:38:52.771Z,6.73
2022-12-07T11:41:24.140Z,6.53
2022-12-07T11:43:57.329Z,12.47
2022-12-07T11:46:28.682Z,5.63
2022-12-07T11:49:01.698Z,6.03
2022-12-07T11:51:33.777Z,6.57
2022-12-07T11:54:04.632Z,7.00
2022-12-07T11:56:32.861Z,5.63
2022-12-07T11:59:05.283Z,5.90
2022-12-07T12:01:46.672Z,5.77
2022-12-07T12:04:25.722Z,6.30
2022-12-07T12:06:54.055Z,6.57
2022-12-07T12:09:41.728Z,5.50
2022-12-07T12:15:21.623Z,6.50
2022-12-07T12:18:11.842Z,6.47
2022-12-07T12:20:43.599Z,5.50
2022-12-07T12:23:15.596Z,6.10
2022-12-07T12:25:45.675Z,4.63
2022-12-07T12:28:24.669Z,5.10
2022-12-07T12:31:08.259Z,4.70
2022-12-07T12:33:38.056Z,4.53
2022-12-07T12:36:26.151Z,7.23
2022-12-07T12:39:11.797Z,4.90
2022-12-07T12:42:08.645Z,4.07
2022-12-07T12:45:06.050Z,3.83
2022-12-07T12:47:45.889Z,4.10
2022-12-07T12:50:21.088Z,3.63
2022-12-07T12:52:53.918Z,3.73
2022-12-07T12:55:55.191Z,3.93
2022-12-07T12:58:42.006Z,3.20
2022-12-07T13:01:43.915Z,3.50
2022-12-07T13:04:31.000Z,3.73
2022-12-07T13:07:00.215Z,3.20
2022-12-07T13:09:29.509Z,3.00
2022-12-07T13:12:02.138Z,3.00
2022-12-07T13:14:58.233Z,3.30
2022-12-07T13:17:58.958Z,2.73
2022-12-07T13:20:42.668Z,2.67
2022-12-07T13:23:12.652Z,2.80
2022-12-07T13:25:47.395Z,2.63
2022-12-07T13:28:18.175Z,4.33
2022-12-07T13:30:52.688Z,3.23
2022-12-07T13:33:21.236Z,3.00
2022-12-07T13:35:49.148Z,2.67
2022-12-07T13:38:30.137Z,2.60
2022-12-07T13:41:19.240Z,2.70
2022-12-07T13:43:50.386Z,2.23
2022-12-07T13:46:20.508Z,2.23
2022-12-07T13:48:50.163Z,2.23
2022-12-07T13:51:20.967Z,2.00
2022-12-07T13:53:51.681Z,2.57
2022-12-07T13:56:19.545Z,1.90
2022-12-07T13:58:47.466Z,2.30
2022-12-07T14:01:15.615Z,2.50
2022-12-07T14:03:43.660Z,4.27
2022-12-07T14:06:21.889Z,2.83
2022-12-07T14:08:54.522Z,2.27
2022-12-07T14:11:31.817Z,2.17
2022-12-07T14:14:01.284Z,2.13
2022-12-07T14:16:31.437Z,2.40
2022-12-07T14:19:00.756Z,2.17
2022-12-07T14:21:29.949Z,2.70
2022-12-07T14:24:29.193Z,2.87
2022-12-07T14:26:57.009Z,3.17
2022-12-07T14:29:33.698Z,2.70
2022-12-07T14:32:18.728Z,3.03
2022-12-07T14:34:55.730Z,2.27
2022-12-07T14:37:23.557Z,3.00
2022-12-07T14:39:52.804Z,3.03
2022-12-07T14:42:21.023Z,3.03
2022-12-07T14:44:49.016Z,2.60
2022-12-07T14:50:06.723Z,2.73
2022-12-07T14:55:27.173Z,2.43
2022-12-07T14:57:55.127Z,2.10
2022-12-07T15:00:24.181Z,1.93
2022-12-07T15:02:52.644Z,1.70
2022-12-07T15:05:21.075Z,1.70
2022-12-07T15:07:50.026Z,1.80
2022-12-07T15:10:23.834Z,2.30
2022-12-07T15:12:53.787Z,2.40
2022-12-07T15:15:21.648Z,1.70
2022-12-07T15:17:49.554Z,2.00
2022-12-07T15:20:18.659Z,2.30
2022-12-07T15:22:46.550Z,2.00
2022-12-07T15:25:15.828Z,2.70
2022-12-07T15:27:43.837Z,2.40
2022-12-07T15:30:13.594Z,2.50
2022-12-07T15:32:41.731Z,2.70
2022-12-07T15:35:10.339Z,2.57
2022-12-07T15:37:38.272Z,2.80
2022-12-07T15:40:08.336Z,2.70
2022-12-07T15:42:37.389Z,2.83
2022-12-07T15:45:05.885Z,2.30
2022-12-07T15:47:49.560Z,4.17
2022-12-07T15:50:25.427Z,3.03
2022-12-07T15:52:53.602Z,3.10
2022-12-07T15:55:21.653Z,2.60
2022-12-07T15:57:50.369Z,6.63
2022-12-07T16:00:19.579Z,4.20
2022-12-07T16:02:48.918Z,4.00
2022-12-07T16:05:16.893Z,4.40
2022-12-07T16:07:47.696Z,4.57
2022-12-07T16:10:15.764Z,4.57
2022-12-07T16:12:43.606Z,5.00
2022-12-07T16:15:12.341Z,4.90
2022-12-07T16:17:40.423Z,5.83
2022-12-07T16:20:11.212Z,6.10
2022-12-07T16:22:39.057Z,5.23
2022-12-07T16:25:07.507Z,5.07
2022-12-07T16:27:36.176Z,4.90
2022-12-07T16:30:04.930Z,5.63
2022-12-07T16:32:32.946Z,5.63
2022-12-07T16:35:01.190Z,5.13
2022-12-07T16:37:30.685Z,5.60
2022-12-07T16:39:58.535Z,5.53
2022-12-07T16:42:27.398Z,4.53
2022-12-07T16:44:55.188Z,4.97
2022-12-07T16:47:23.061Z,5.40
2022-12-07T16:49:51.793Z,5.27
2022-12-07T16:52:20.978Z,4.87
2022-12-07T16:54:51.193Z,4.90
2022-12-07T16:57:23.516Z,4.83
2022-12-07T16:59:52.366Z,4.70
2022-12-07T17:02:20.322Z,5.13
2022-12-07T17:04:48.205Z,5.50
2022-12-07T17:07:16.191Z,4.60
2022-12-07T17:09:44.162Z,4.60
2022-12-07T17:12:13.311Z,4.83
2022-12-07T17:14:58.712Z,4.77
2022-12-07T17:17:26.617Z,4.97
2022-12-07T17:19:54.527Z,7.20
2022-12-07T17:22:22.696Z,5.17
2022-12-07T17:24:50.552Z,5.20
2022-12-07T17:27:19.934Z,4.90
2022-12-07T17:29:47.790Z,4.53
2022-12-07T17:32:15.706Z,4.77
2022-12-07T17:34:43.856Z,4.83
2022-12-07T17:37:11.887Z,5.67
2022-12-07T17:39:39.983Z,5.00
2022-12-07T17:42:25.326Z,4.63
2022-12-07T17:44:54.489Z,4.87
2022-12-07T17:47:22.674Z,4.93
2022-12-07T17:49:50.583Z,5.10
2022-12-07T17:52:35.959Z,4.67
2022-12-07T17:55:04.061Z,4.97
2022-12-07T17:57:32.498Z,5.23
2022-12-07T18:00:01.733Z,5.60
2022-12-07T18:02:39.767Z,5.10
2022-12-07T18:05:08.801Z,5.13
2022-12-07T18:07:37.026Z,4.73
2022-12-07T18:10:07.419Z,5.60
2022-12-07T18:12:35.332Z,4.97
2022-12-07T18:15:05.172Z,5.10
2022-12-07T18:17:33.126Z,4.77
2022-12-07T18:20:01.084Z,5.67
2022-12-07T18:22:28.933Z,5.47
2022-12-07T18:24:56.868Z,4.43
2022-12-07T18:27:24.704Z,5.40
2022-12-07T18:29:54.141Z,4.73
2022-12-07T18:32:23.668Z,4.60
2022-12-07T18:34:51.550Z,4.00
2022-12-07T18:37:19.384Z,3.90
2022-12-07T18:39:47.687Z,4.17
2022-12-07T18:42:15.603Z,3.73
2022-12-07T18:44:43.488Z,3.80
2022-12-07T18:47:11.349Z,4.20
2022-12-07T18:49:40.616Z,4.30
2022-12-07T18:52:08.409Z,3.57
2022-12-07T18:54:36.251Z,4.50
2022-12-07T18:57:04.039Z,5.00
2022-12-07T18:59:47.938Z,5.37
2022-12-07T19:02:15.839Z,5.33
2022-12-07T19:04:45.204Z,5.77
2022-12-07T19:07:13.150Z,6.10
2022-12-07T19:09:41.461Z,6.60
2022-12-07T19:12:12.780Z,6.80
2022-12-07T19:14:40.829Z,8.40
2022-12-07T19:17:11.679Z,8.13
2022-12-07T19:19:41.324Z,7.60
2022-12-07T19:22:12.083Z,8.67
2022-12-07T19:24:40.216Z,8.20
2022-12-07T19:27:09.858Z,8.37
2022-12-07T19:29:38.951Z,8.30
2022-12-07T19:32:08.950Z,12.37
2022-12-07T19:34:37.362Z,9.60
2022-12-07T19:37:05.286Z,9.00
2022-12-07T19:39:34.713Z,8.77
2022-12-07T19:42:02.890Z,8.60
2022-12-07T19:44:32.226Z,8.70
2022-12-07T19:47:05.101Z,8.43
2022-12-07T19:49:34.618Z,7.73
2022-12-07T19:52:05.203Z,8.60
2022-12-07T19:54:34.636Z,8.77
2022-12-07T19:57:04.342Z,8.67
2022-12-07T19:59:32.505Z,7.87
2022-12-07T20:02:00.389Z,8.67
2022-12-07T20:04:31.232Z,8.27
2022-12-07T20:07:00.684Z,9.00
2022-12-07T20:09:29.140Z,8.50
2022-12-07T20:12:15.901Z,8.77
2022-12-07T20:14:43.770Z,9.43
2022-12-07T20:17:11.706Z,10.13
2022-12-07T20:19:39.879Z,10.30
2022-12-07T20:22:07.882Z,10.80
2022-12-07T20:24:36.346Z,10.10
2022-12-07T20:27:06.450Z,9.67
2022-12-07T20:29:34.771Z,9.73
2022-12-07T20:32:02.619Z,13.93
2022-12-07T20:34:30.440Z,9.63
2022-12-07T20:36:58.390Z,10.47
2022-12-07T20:39:26.177Z,10.37
2022-12-07T20:42:11.737Z,10.47
2022-12-07T20:44:40.893Z,11.40
2022-12-07T20:47:08.755Z,12.30
2022-12-07T20:49:36.592Z,12.43
2022-12-07T20:52:05.072Z,13.30
2022-12-07T20:54:32.958Z,12.37
2022-12-07T20:57:00.808Z,12.57
2022-12-07T20:59:28.629Z,13.13
2022-12-07T21:01:57.826Z,13.80
2022-12-07T21:04:25.731Z,15.37
2022-12-07T21:06:53.507Z,15.80
2022-12-07T21:09:26.676Z,15.80
2022-12-07T21:11:54.927Z,16.03
2022-12-07T21:14:22.884Z,16.20
2022-12-07T21:16:50.712Z,16.97
2022-12-07T21:19:19.929Z,16.37
2022-12-07T21:21:47.701Z,18.20
2022-12-07T21:24:15.402Z,18.97
2022-12-07T21:26:43.117Z,16.97
2022-12-07T21:29:11.143Z,18.67
2022-12-07T21:31:38.992Z,19.10
2022-12-07T21:34:07.129Z,18.57
2022-12-07T21:36:36.716Z,20.60
2022-12-07T21:39:04.911Z,19.90
2022-12-07T21:41:34.430Z,21.20
2022-12-07T21:44:02.824Z,20.70
2022-12-07T21:46:34.135Z,20.43
2022-12-07T21:49:04.773Z,21.63
2022-12-07T21:51:32.675Z,22.43
2022-12-07T21:54:02.940Z,22.43
2022-12-07T21:56:32.184Z,22.00
2022-12-07T21:59:01.486Z,21.90
2022-12-07T22:01:30.941Z,21.87
2022-12-07T22:03:58.896Z,22.13
2022-12-07T22:06:27.674Z,23.57
2022-12-07T22:08:55.793Z,19.90
2022-12-07T22:11:24.962Z,22.50
2022-12-07T22:14:10.997Z,23.10
2022-12-07T22:16:39.804Z,25.07
2022-12-07T22:19:08.408Z,24.30
2022-12-07T22:21:36.814Z,20.67
2022-12-07T22:24:05.208Z,23.33
2022-12-07T22:26:34.516Z,24.20
2022-12-07T22:29:02.751Z,22.40
2022-12-07T22:31:30.596Z,24.50
2022-12-07T22:33:58.652Z,24.20
2022-12-07T22:36:28.219Z,24.50
2022-12-07T22:38:56.064Z,24.33
2022-12-07T22:41:26.210Z,24.77
2022-12-07T22:43:56.254Z,24.20
2022-12-07T22:46:24.577Z,22.17
2022-12-07T22:48:52.588Z,23.13
2022-12-07T22:51:22.062Z,23.80
2022-12-07T22:53:50.273Z,21.87
2022-12-07T22:56:18.190Z,21.97
2022-12-07T22:58:46.371Z,19.10
2022-12-07T23:01:16.901Z,21.33
2022-12-07T23:03:44.836Z,20.93
2022-12-07T23:06:16.210Z,20.27
2022-12-07T23:08:44.217Z,19.37
2022-12-07T23:11:37.961Z,20.03
2022-12-07T23:14:09.274Z,20.43
2022-12-07T23:16:38.517Z,22.40
2022-12-07T23:19:06.508Z,20.67
2022-12-07T23:21:34.485Z,19.30
2022-12-07T23:24:02.508Z,18.80
2022-12-07T23:26:30.257Z,18.17
2022-12-07T23:28:58.361Z,18.70
2022-12-07T23:31:26.964Z,18.87
2022-12-07T23:33:56.182Z,18.47
2022-12-07T23:36:25.683Z,16.80
2022-12-07T23:38:54.905Z,17.00
2022-12-07T23:41:24.293Z,16.23
2022-12-07T23:43:52.357Z,16.60
2022-12-07T23:46:22.185Z,16.57
2022-12-07T23:48:51.668Z,14.87
2022-12-07T23:51:21.172Z,14.70
2022-12-07T23:53:50.346Z,14.87
2022-12-07T23:56:19.855Z,13.80
2022-12-07T23:58:48.437Z,14.23
